KGNA

The Bay of Grand Marais Airport

Grand Marais, Minnesota, USA
METAR KGNA 181356Z AUTO 34014G26KT M22/M28 A3025 RMK AO1 PK WND 33027/1310 SLP271 T12221283
Observed Flight Rules
Jan-18 @ 13:56 UTC (45 minutes ago)
Wind
340° at 14 knots
 Gusting to 26 knots
Temperatures Readings
Current -22°C / -8°F
Dewpoint -28°C / -18°F
Humidity 58%
Altimeter 30.25" Hg
Pressure 1027.1 hPa
Elevation 185
METAR KGNA 181356Z AUTO 34014G26KT M22/M28 A3025 RMK AO1 PK WND 33027/1310 SLP271 T12221283
Observed Flight Rules
Jan-18 @ 13:56 UTC
(45 minutes ago)
Wind
340° at 14 knots
 Gusting to 26 knots
Temperature Dewpoint
-22°C / -8°F -28°C / -18°F
Humidity Altimeter Pressure
58% 30.25" Hg 1027.1 hPa